Time;durP1;ratioP1;P1;durP2;ratioP2;P2;SDS_P1;SDS_P2;PMS_P1;PMS_P2;Temp;Humidity;BMP_temperature;BMP_pressure;BME280_temperature;BME280_humidity;BME280_pressure;Samples;Min_cycle;Max_cycle;Signal;HPM_P1;HPM_P2
2022/05/07 00:01:19;;;;;;;19.48;17.23;;;15.30;99.90;;;;;;5114487;28;20077;-71
2022/05/07 00:03:46;;;;;;;21.88;16.90;;;15.40;99.90;;;;;;5114068;28;20035;-71
2022/05/07 00:06:12;;;;;;;21.40;17.70;;;15.40;99.90;;;;;;5095713;28;20031;-72
2022/05/07 00:08:38;;;;;;;22.90;18.58;;;15.30;99.90;;;;;;5114059;28;20527;-71
2022/05/07 00:11:04;;;;;;;21.73;18.50;;;15.30;99.90;;;;;;5095725;28;20495;-71
2022/05/07 00:13:30;;;;;;;24.83;19.27;;;15.30;99.90;;;;;;5113947;28;20024;-72
2022/05/07 00:18:40;;;;;;;22.17;19.00;;;15.30;99.90;;;;;;5113936;28;20077;-72
2022/05/07 00:21:06;;;;;;;23.88;18.70;;;15.20;99.90;;;;;;5095558;28;20027;-73
2022/05/07 00:23:32;;;;;;;21.58;18.17;;;15.20;99.90;;;;;;5113724;28;20060;-72
2022/05/07 00:25:58;;;;;;;22.23;18.25;;;15.20;99.90;;;;;;5113634;28;20039;-72
2022/05/07 00:28:24;;;;;;;24.90;17.98;;;15.20;99.90;;;;;;5094769;28;20031;-72
2022/05/07 00:30:50;;;;;;;25.13;18.20;;;15.20;99.90;;;;;;5095358;28;20114;-72
2022/05/07 00:33:16;;;;;;;22.02;17.83;;;15.20;99.90;;;;;;5113489;28;20464;-72
2022/05/07 00:35:42;;;;;;;23.40;18.38;;;15.10;99.90;;;;;;5113871;28;20027;-72
2022/05/07 00:38:07;;;;;;;22.52;18.23;;;15.10;99.90;;;;;;5113644;28;20422;-72
2022/05/07 00:40:33;;;;;;;26.00;18.83;;;15.10;99.90;;;;;;5095284;28;20061;-73
2022/05/07 00:42:59;;;;;;;26.02;18.02;;;15.10;99.90;;;;;;5095287;28;20027;-72
2022/05/07 00:45:25;;;;;;;25.23;17.98;;;15.10;99.90;;;;;;5095138;28;20038;-73
2022/05/07 00:47:51;;;;;;;21.55;17.45;;;15.10;99.90;;;;;;5113470;28;20066;-72
2022/05/07 00:53:01;;;;;;;21.98;18.10;;;15.10;99.90;;;;;;5113242;28;20074;-73
2022/05/07 00:55:29;;;;;;;19.73;17.23;;;15.10;99.90;;;;;;5113446;28;20059;-72
2022/05/07 00:57:55;;;;;;;22.38;17.98;;;15.10;99.90;;;;;;5113414;28;20059;-72
2022/05/07 01:00:22;;;;;;;19.35;17.13;;;15.10;99.90;;;;;;5113169;28;20594;-72
2022/05/07 01:02:48;;;;;;;22.20;17.55;;;15.10;99.90;;;;;;5113120;28;20369;-72
2022/05/07 01:05:14;;;;;;;19.60;17.35;;;15.10;99.90;;;;;;5094958;28;20035;-72
2022/05/07 01:07:42;;;;;;;22.95;17.15;;;15.20;99.90;;;;;;5095003;28;20031;-72
2022/05/07 01:10:08;;;;;;;20.08;17.02;;;15.20;99.90;;;;;;5112996;28;20434;-72
2022/05/07 01:12:35;;;;;;;19.98;17.90;;;15.20;99.90;;;;;;5113296;28;20020;-73
2022/05/07 01:15:01;;;;;;;20.88;17.17;;;15.10;99.90;;;;;;5113284;28;20027;-73
2022/05/07 01:17:27;;;;;;;21.60;18.02;;;15.20;99.90;;;;;;5094946;28;20486;-73
2022/05/07 01:19:54;;;;;;;22.52;17.48;;;15.20;99.90;;;;;;5094930;28;20562;-73
2022/05/07 01:22:23;;;;;;;24.77;18.40;;;15.20;99.90;;;;;;5094966;28;20483;-72
2022/05/07 01:24:49;;;;;;;20.65;17.38;;;15.20;99.90;;;;;;5113130;28;20036;-73
2022/05/07 01:27:15;;;;;;;20.40;18.00;;;15.10;99.90;;;;;;5091272;28;20056;-72
2022/05/07 01:29:41;;;;;;;24.10;17.27;;;15.10;99.90;;;;;;5092808;28;20032;-71
2022/05/07 01:32:07;;;;;;;24.67;18.77;;;15.10;99.90;;;;;;5091485;28;20537;-72
2022/05/07 01:34:33;;;;;;;23.17;18.88;;;15.10;99.90;;;;;;5092793;28;20032;-72
2022/05/07 01:36:58;;;;;;;20.80;18.55;;;15.10;99.90;;;;;;5092466;28;20027;-72
2022/05/07 01:39:24;;;;;;;25.30;18.20;;;15.10;99.90;;;;;;5093337;28;20032;-72
2022/05/07 01:41:50;;;;;;;23.05;18.48;;;15.10;99.90;;;;;;5096526;28;20099;-75
2022/05/07 01:44:16;;;;;;;23.10;18.20;;;15.00;99.90;;;;;;5094959;28;20464;-76
2022/05/07 01:49:26;;;;;;;25.95;20.08;;;15.00;99.90;;;;;;5096383;28;20434;-72
2022/05/07 01:51:52;;;;;;;20.85;18.50;;;15.00;99.90;;;;;;5096387;28;20028;-72
2022/05/07 01:54:18;;;;;;;21.73;18.65;;;15.10;99.90;;;;;;5094926;28;20028;-74
2022/05/07 01:56:44;;;;;;;24.52;19.80;;;15.10;99.90;;;;;;5096207;28;20020;-74
2022/05/07 01:59:09;;;;;;;21.95;18.65;;;15.10;99.90;;;;;;5094808;28;20047;-72
2022/05/07 02:01:35;;;;;;;23.52;21.00;;;15.10;99.90;;;;;;5096082;28;20032;-72
2022/05/07 02:04:01;;;;;;;23.73;19.20;;;15.10;99.90;;;;;;5094646;28;20122;-72
2022/05/07 02:06:27;;;;;;;24.52;19.80;;;15.10;99.90;;;;;;5095734;28;20028;-70
2022/05/07 02:08:54;;;;;;;26.00;20.13;;;15.10;99.90;;;;;;5096275;28;20020;-71
2022/05/07 02:11:20;;;;;;;26.65;19.30;;;15.00;99.90;;;;;;5095892;28;20123;-72
2022/05/07 02:13:46;;;;;;;23.73;20.85;;;15.00;99.90;;;;;;5095974;28;20020;-72
2022/05/07 02:16:12;;;;;;;22.83;19.90;;;15.00;99.90;;;;;;5096198;28;20070;-72
2022/05/07 02:18:38;;;;;;;26.05;19.92;;;15.10;99.90;;;;;;5094381;28;20386;-72
2022/05/07 02:21:04;;;;;;;23.60;20.67;;;15.10;99.90;;;;;;5094388;28;20118;-73
2022/05/07 02:23:29;;;;;;;24.08;20.20;;;15.10;99.90;;;;;;5095519;28;20020;-73
2022/05/07 02:25:55;;;;;;;25.60;20.45;;;15.10;99.90;;;;;;5093947;28;20106;-73
2022/05/07 02:28:21;;;;;;;25.27;20.67;;;15.10;99.90;;;;;;5095584;28;20133;-74
2022/05/07 02:30:47;;;;;;;25.95;20.88;;;15.10;99.90;;;;;;5095568;28;20380;-73
2022/05/07 02:33:13;;;;;;;24.77;19.75;;;15.10;99.90;;;;;;5093863;28;20032;-73
2022/05/07 02:35:39;;;;;;;24.27;20.65;;;15.10;99.90;;;;;;5094126;28;20063;-72
2022/05/07 02:38:05;;;;;;;29.27;21.38;;;15.00;99.90;;;;;;5095375;28;20032;-73
2022/05/07 02:42:33;;;;;;;25.17;21.38;;;15.10;99.90;;;;;;5095623;28;20406;-72
2022/05/07 02:43:16;;;;;;;25.02;20.50;;;15.10;99.90;;;;;;5095005;28;20107;-72
2022/05/07 02:45:42;;;;;;;29.75;20.40;;;15.00;99.90;;;;;;5093813;28;20122;-74
2022/05/07 02:48:08;;;;;;;29.90;21.77;;;15.00;99.90;;;;;;5095228;28;20024;-73
2022/05/07 02:50:34;;;;;;;28.52;20.75;;;15.00;99.90;;;;;;5093679;28;20077;-73
2022/05/07 02:53:00;;;;;;;25.70;21.77;;;14.90;99.90;;;;;;5094601;28;20032;-73
2022/05/07 02:55:26;;;;;;;29.20;21.77;;;14.90;99.90;;;;;;5093728;28;20427;-73
2022/05/07 02:57:52;;;;;;;29.83;21.27;;;15.00;99.90;;;;;;5093726;28;20020;-72
2022/05/07 03:00:18;;;;;;;29.02;22.92;;;14.90;99.90;;;;;;5094956;28;20050;-73
2022/05/07 03:02:44;;;;;;;25.00;20.80;;;14.90;99.90;;;;;;5095001;28;20032;-72
2022/05/07 03:05:10;;;;;;;34.55;23.67;;;14.90;99.90;;;;;;5094949;28;20028;-72
2022/05/07 03:07:39;;;;;;;28.83;22.13;;;14.90;99.90;;;;;;5094861;28;20118;-72
2022/05/07 03:10:05;;;;;;;27.08;21.10;;;14.90;99.90;;;;;;5095067;28;20052;-72
2022/05/07 03:12:31;;;;;;;30.75;21.13;;;15.00;99.90;;;;;;5094776;28;20028;-72
2022/05/07 03:14:58;;;;;;;30.98;21.73;;;14.90;99.90;;;;;;5093383;28;20495;-73
2022/05/07 03:17:26;;;;;;;30.42;22.42;;;14.90;99.90;;;;;;5093368;28;20024;-72
2022/05/07 03:19:52;;;;;;;28.33;22.17;;;14.90;99.90;;;;;;5093278;28;20024;-73
2022/05/07 03:22:18;;;;;;;29.52;22.17;;;14.80;99.90;;;;;;5093192;28;20507;-73
2022/05/07 03:24:43;;;;;;;26.55;22.00;;;14.80;99.90;;;;;;5094402;28;20024;-72
2022/05/07 03:27:09;;;;;;;28.73;22.00;;;14.70;99.90;;;;;;5111328;28;20043;-73
2022/05/07 03:29:35;;;;;;;30.20;22.38;;;14.70;99.90;;;;;;5096495;28;20108;-72
2022/05/07 03:32:01;;;;;;;27.70;22.90;;;14.70;99.90;;;;;;5114752;28;20031;-73
2022/05/07 03:34:27;;;;;;;26.73;22.20;;;14.70;99.90;;;;;;5096405;28;20038;-73
2022/05/07 03:36:53;;;;;;;27.65;22.60;;;14.70;99.90;;;;;;5114619;28;20452;-74
2022/05/07 03:39:18;;;;;;;31.25;22.00;;;14.70;99.90;;;;;;5096272;28;20433;-72
2022/05/07 03:41:44;;;;;;;29.83;22.27;;;14.80;99.90;;;;;;5096188;28;20114;-72
2022/05/07 03:44:10;;;;;;;28.83;21.90;;;14.80;99.90;;;;;;5114487;28;20071;-72
2022/05/07 03:46:36;;;;;;;28.58;20.90;;;14.80;99.90;;;;;;5114455;28;20036;-72
2022/05/07 03:49:02;;;;;;;27.25;21.30;;;14.80;99.90;;;;;;5114446;28;20077;-73
2022/05/07 03:51:28;;;;;;;26.52;22.02;;;14.80;99.90;;;;;;5114351;28;20028;-72
2022/05/07 03:53:54;;;;;;;30.90;22.02;;;14.80;99.90;;;;;;5114640;28;20035;-73
2022/05/07 03:56:20;;;;;;;30.23;23.67;;;14.90;99.90;;;;;;5114227;28;20027;-72
2022/05/07 03:58:45;;;;;;;25.30;21.08;;;14.90;99.90;;;;;;5114246;28;20448;-72
2022/05/07 04:01:11;;;;;;;25.48;20.77;;;14.90;99.90;;;;;;5113970;28;20080;-72
2022/05/07 04:03:37;;;;;;;28.55;20.58;;;15.00;99.90;;;;;;5113417;28;20059;-72
2022/05/07 04:06:03;;;;;;;23.60;20.58;;;15.00;99.90;;;;;;5114119;28;20028;-72
2022/05/07 04:08:29;;;;;;;25.98;21.13;;;15.00;99.90;;;;;;5114088;28;20031;-72
2022/05/07 04:10:55;;;;;;;26.40;21.48;;;15.10;99.90;;;;;;5114260;28;20019;-72
2022/05/07 04:13:21;;;;;;;28.95;21.75;;;15.10;99.90;;;;;;5114023;28;20488;-73
2022/05/07 04:15:47;;;;;;;33.92;24.33;;;15.10;99.90;;;;;;5113898;28;20046;-72
2022/05/07 04:18:13;;;;;;;32.53;23.80;;;15.10;99.90;;;;;;5113936;28;20024;-72
2022/05/07 04:20:39;;;;;;;42.40;24.10;;;15.10;99.90;;;;;;5113807;28;20453;-72
2022/05/07 04:23:05;;;;;;;26.20;20.70;;;15.10;99.90;;;;;;5113870;28;20103;-73
2022/05/07 04:25:31;;;;;;;31.65;20.92;;;15.10;99.90;;;;;;5113415;28;20156;-73
2022/05/07 04:27:58;;;;;;;23.60;18.75;;;15.20;99.90;;;;;;5113794;28;20515;-74
2022/05/07 04:30:24;;;;;;;23.92;19.02;;;15.20;99.90;;;;;;5113717;28;20102;-75
2022/05/07 04:32:50;;;;;;;22.17;17.98;;;15.20;99.90;;;;;;5113729;28;20028;-74
2022/05/07 04:35:17;;;;;;;25.48;19.15;;;15.30;99.90;;;;;;5113597;28;20036;-73
2022/05/07 04:37:42;;;;;;;24.10;19.05;;;15.30;99.90;;;;;;5095307;28;20130;-70
2022/05/07 04:40:10;;;;;;;26.02;20.27;;;15.30;99.90;;;;;;5113649;28;20055;-70
2022/05/07 04:42:37;;;;;;;21.13;18.42;;;;;;;;;;5113586;28;20028;-70
2022/05/07 04:45:04;;;;;;;29.15;20.67;;;15.40;99.90;;;;;;5113516;28;20024;-71
2022/05/07 04:47:30;;;;;;;35.97;22.02;;;15.40;99.90;;;;;;5113461;28;20028;-71
2022/05/07 04:49:57;;;;;;;26.73;19.92;;;15.40;99.90;;;;;;5113461;28;20046;-72
2022/05/07 04:52:23;;;;;;;30.77;22.17;;;15.50;99.90;;;;;;5095162;28;20027;-71
2022/05/07 04:54:48;;;;;;;26.67;22.38;;;15.50;99.90;;;;;;5095247;28;20051;-71
2022/05/07 04:57:14;;;;;;;29.55;22.65;;;15.50;99.90;;;;;;5113451;28;20361;-72
2022/05/07 04:59:40;;;;;;;29.77;22.25;;;15.50;99.90;;;;;;5113416;28;20062;-71
2022/05/07 05:02:06;;;;;;;27.02;22.10;;;15.50;99.90;;;;;;5095074;28;20047;-70
2022/05/07 05:04:32;;;;;;;29.70;21.45;;;15.50;99.90;;;;;;5113356;28;20023;-70
2022/05/07 05:06:58;;;;;;;28.75;22.08;;;15.60;99.90;;;;;;5095021;28;20027;-71
2022/05/07 05:09:24;;;;;;;29.58;22.70;;;15.60;99.90;;;;;;5113325;28;20041;-71
2022/05/07 05:11:50;;;;;;;37.78;22.80;;;15.60;99.90;;;;;;5095092;28;20464;-71
2022/05/07 05:17:00;;;;;;;31.58;22.95;;;15.70;99.90;;;;;;5117170;28;20030;-72
2022/05/07 05:19:26;;;;;;;31.58;22.38;;;15.70;99.90;;;;;;5117418;28;20026;-71
2022/05/07 05:21:51;;;;;;;29.83;23.88;;;15.70;99.90;;;;;;5116975;28;20480;-71
2022/05/07 05:24:17;;;;;;;36.35;24.13;;;15.80;99.90;;;;;;5116972;28;20028;-72
2022/05/07 05:26:43;;;;;;;30.65;21.80;;;15.80;99.90;;;;;;5116777;28;20514;-71
2022/05/07 05:29:10;;;;;;;28.48;20.33;;;;;;;;;;5117185;28;20208;-72
2022/05/07 05:31:36;;;;;;;28.08;20.48;;;;;;;;;;5098752;28;20020;-72
2022/05/07 05:34:02;;;;;;;32.47;20.83;;;16.20;99.90;;;;;;5117106;28;20033;-73
2022/05/07 05:36:28;;;;;;;25.55;19.00;;;;;;;;;;5116947;28;20028;-74
2022/05/07 05:38:54;;;;;;;28.92;19.35;;;;;;;;;;5116944;28;20072;-71
2022/05/07 05:41:21;;;;;;;23.17;18.45;;;;;;;;;;5116906;28;20016;-71
2022/05/07 05:43:47;;;;;;;26.63;20.35;;;16.20;99.90;;;;;;5116854;28;20080;-71
2022/05/07 05:46:15;;;;;;;28.73;18.30;;;16.30;99.90;;;;;;5117102;28;20032;-71
2022/05/07 05:48:41;;;;;;;24.20;19.42;;;16.30;99.90;;;;;;5116759;28;20097;-71
2022/05/07 05:51:07;;;;;;;23.58;17.67;;;16.30;99.90;;;;;;5116913;28;20067;-72
2022/05/07 05:53:33;;;;;;;16.30;14.55;;;16.30;99.90;;;;;;5116447;28;20044;-72
2022/05/07 05:56:00;;;;;;;24.10;16.88;;;16.40;99.90;;;;;;5116608;28;20024;-72
2022/05/07 05:58:33;;;;;;;23.38;16.92;;;16.40;99.90;;;;;;5116569;28;20110;-72
2022/05/07 06:01:03;;;;;;;20.77;17.02;;;16.40;99.90;;;;;;5098247;28;20035;-72
2022/05/07 06:03:29;;;;;;;18.23;16.15;;;;;;;;;;5116775;28;20032;-72
2022/05/07 06:05:55;;;;;;;20.95;16.90;;;;;;;;;;5116345;28;20042;-73
2022/05/07 06:08:21;;;;;;;22.65;15.98;;;;;;;;;;5116365;28;20035;-72
2022/05/07 06:10:52;;;;;;;18.95;15.38;;;16.50;99.90;;;;;;5116341;28;20020;-72
2022/05/07 06:13:18;;;;;;;25.05;15.70;;;16.70;99.90;;;;;;5116290;28;20019;-72
2022/05/07 06:15:45;;;;;;;17.50;14.45;;;16.70;99.90;;;;;;5116523;28;20050;-72
2022/05/07 06:18:11;;;;;;;16.25;13.57;;;16.80;99.90;;;;;;5116225;28;20024;-72
2022/05/07 06:20:37;;;;;;;21.08;14.35;;;16.80;99.90;;;;;;5116119;28;20051;-72
2022/05/07 06:23:03;;;;;;;21.60;15.18;;;16.90;99.90;;;;;;5097725;28;20388;-72
2022/05/07 06:28:13;;;;;;;16.02;14.30;;;17.00;99.90;;;;;;5115466;28;20081;-72
2022/05/07 06:30:39;;;;;;;18.20;14.48;;;17.10;99.90;;;;;;5115552;28;20020;-72
2022/05/07 06:33:05;;;;;;;18.25;14.77;;;17.10;99.90;;;;;;5115586;28;20028;-71
2022/05/07 06:35:32;;;;;;;19.98;14.70;;;17.20;99.90;;;;;;5097539;28;20032;-73
2022/05/07 06:37:58;;;;;;;16.58;12.60;;;17.30;99.90;;;;;;5114883;28;20019;-69
2022/05/07 06:40:24;;;;;;;17.45;11.82;;;17.10;99.90;;;;;;5108719;28;20031;-67
2022/05/07 06:42:49;;;;;;;12.82;11.23;;;17.20;99.90;;;;;;5086125;28;20102;-67
2022/05/07 06:45:15;;;;;;;14.55;12.18;;;17.20;99.90;;;;;;5104842;28;20105;-67
2022/05/07 06:47:41;;;;;;;17.45;12.00;;;17.30;99.90;;;;;;5102773;28;20032;-68
2022/05/07 06:50:07;;;;;;;16.13;13.07;;;17.60;99.90;;;;;;5112099;28;20056;-67
2022/05/07 06:52:43;;;;;;;18.30;11.80;;;17.60;99.90;;;;;;5115222;28;20476;-67
2022/05/07 06:55:12;;;;;;;16.65;12.45;;;17.90;99.90;;;;;;5115537;28;20084;-69
2022/05/07 06:57:38;;;;;;;20.48;13.73;;;18.00;99.90;;;;;;5113814;28;20023;-69
2022/05/07 07:00:05;;;;;;;14.15;12.40;;;18.00;99.90;;;;;;5104317;28;20047;-68
2022/05/07 07:02:31;;;;;;;18.55;12.20;;;18.10;99.90;;;;;;5102647;28;20032;-69
2022/05/07 07:04:57;;;;;;;15.27;12.18;;;18.20;99.90;;;;;;5102555;28;20020;-69
2022/05/07 07:07:25;;;;;;;20.65;12.93;;;18.30;99.90;;;;;;5106992;28;20044;-73
2022/05/07 07:09:52;;;;;;;15.43;12.65;;;18.10;99.90;;;;;;5101921;28;20476;-72
2022/05/07 07:12:19;;;;;;;18.08;13.50;;;18.10;99.90;;;;;;5104748;28;20418;-73
2022/05/07 07:14:47;;;;;;;14.95;13.38;;;18.10;99.90;;;;;;5084734;28;20066;-76
2022/05/07 07:17:15;;;;;;;16.48;13.75;;;18.10;99.90;;;;;;5102721;28;20023;-72
2022/05/07 07:19:42;;;;;;;19.30;13.63;;;18.20;99.90;;;;;;5094433;28;20024;-72
2022/05/07 07:22:08;;;;;;;14.65;12.75;;;18.20;99.90;;;;;;5076337;28;20119;-71
2022/05/07 07:24:34;;;;;;;17.80;13.38;;;18.30;99.90;;;;;;5075876;28;20039;-74
2022/05/07 07:26:59;;;;;;;18.80;13.13;;;18.30;99.90;;;;;;5094503;28;20056;-72
2022/05/07 07:29:25;;;;;;;22.48;14.90;;;18.30;99.90;;;;;;5076171;28;20031;-71
2022/05/07 07:31:51;;;;;;;23.10;13.93;;;18.40;99.90;;;;;;5094227;28;20526;-72
2022/05/07 07:34:18;;;;;;;22.38;14.73;;;18.50;99.90;;;;;;5076112;28;20493;-72
2022/05/07 07:36:44;;;;;;;18.17;14.10;;;18.40;99.90;;;;;;5094130;28;20484;-71
2022/05/07 07:39:13;;;;;;;22.63;17.35;;;18.50;99.90;;;;;;5075741;28;20028;-71
2022/05/07 07:41:39;;;;;;;34.80;23.15;;;18.50;99.90;;;;;;5094092;28;20028;-71
2022/05/07 07:44:04;;;;;;;39.20;26.77;;;18.50;99.90;;;;;;5093976;28;20036;-71
2022/05/07 07:49:14;;;;;;;55.58;41.08;;;18.50;99.90;;;;;;5094005;28;20039;-72
2022/05/07 07:51:40;;;;;;;63.55;38.55;;;18.50;99.90;;;;;;5093936;28;20032;-72
2022/05/07 07:54:06;;;;;;;63.35;37.10;;;18.60;99.90;;;;;;5093780;28;20482;-72
2022/05/07 07:56:32;;;;;;;50.45;37.35;;;18.60;99.90;;;;;;5100942;28;20102;-70
2022/05/07 07:58:57;;;;;;;38.65;27.02;;;18.60;99.90;;;;;;5114198;28;20019;-72
2022/05/07 08:01:23;;;;;;;27.23;24.23;;;;;;;;;;5114382;28;20032;-71
2022/05/07 08:03:49;;;;;;;27.42;23.05;;;19.00;99.90;;;;;;5095578;28;20239;-71
2022/05/07 08:06:15;;;;;;;27.65;23.38;;;19.10;99.90;;;;;;5114027;28;20134;-72
2022/05/07 08:11:40;;;;;;;30.92;17.85;;;19.40;99.90;;;;;;5098489;28;20384;-72
2022/05/07 08:14:07;;;;;;;24.83;18.30;;;19.40;99.90;;;;;;5114005;28;20032;-72
2022/05/07 08:16:34;;;;;;;24.15;17.67;;;19.50;99.90;;;;;;5095583;28;20387;-69
2022/05/07 08:19:01;;;;;;;18.42;16.50;;;19.60;99.90;;;;;;5095598;28;20072;-70
2022/05/07 08:21:28;;;;;;;22.05;15.95;;;;;;;;;;5113791;28;20023;-70
2022/05/07 08:23:53;;;;;;;18.10;15.18;;;19.90;99.90;;;;;;5113282;28;20379;-72
2022/05/07 08:26:19;;;;;;;15.00;13.45;;;20.00;99.90;;;;;;5113458;28;20047;-71
2022/05/07 08:28:45;;;;;;;16.02;13.13;;;20.00;99.90;;;;;;5095243;28;20031;-71
2022/05/07 08:31:11;;;;;;;14.45;13.05;;;20.10;99.90;;;;;;5113686;28;20028;-69
2022/05/07 08:33:42;;;;;;;16.33;13.32;;;20.10;99.90;;;;;;5113587;28;20036;-71
2022/05/07 08:36:08;;;;;;;20.55;12.18;;;;;;;;;;5113697;28;20031;-72
2022/05/07 08:38:34;;;;;;;16.38;11.15;;;20.20;99.90;;;;;;5113129;28;20361;-71
2022/05/07 08:41:00;;;;;;;12.48;11.18;;;20.30;99.90;;;;;;5113479;28;20023;-72
2022/05/07 08:43:37;;;;;;;13.52;11.00;;;20.40;99.90;;;;;;5113587;28;20020;-72
2022/05/07 08:46:12;;;;;;;15.27;11.05;;;20.60;99.90;;;;;;5094818;28;20194;-71
2022/05/07 08:48:40;;;;;;;14.85;11.45;;;20.40;99.90;;;;;;5112868;28;20382;-70
2022/05/07 08:51:06;;;;;;;16.25;13.73;;;20.70;99.90;;;;;;5094745;28;20034;-71
2022/05/07 08:53:32;;;;;;;16.55;12.98;;;20.70;99.90;;;;;;5113440;28;20024;-70
2022/05/07 08:55:58;;;;;;;14.38;12.18;;;;;;;;;;5113625;28;20024;-73
2022/05/07 08:58:24;;;;;;;16.10;12.52;;;;;;;;;;5113279;28;20047;-69
2022/05/07 09:00:50;;;;;;;16.73;14.55;;;20.80;99.90;;;;;;5113259;28;20103;-68
2022/05/07 09:03:17;;;;;;;19.85;14.15;;;20.90;99.90;;;;;;5113526;28;20130;-68
2022/05/07 09:05:43;;;;;;;14.82;12.55;;;20.90;99.90;;;;;;5113229;28;20032;-70
2022/05/07 09:08:11;;;;;;;16.10;13.00;;;21.10;99.90;;;;;;5104161;28;20063;-69
2022/05/07 09:10:39;;;;;;;14.43;12.93;;;21.20;99.90;;;;;;5105927;28;20047;-69
2022/05/07 09:13:14;;;;;;;14.45;12.95;;;21.60;99.90;;;;;;5102844;28;20032;-69
2022/05/07 09:15:58;;;;;;;18.10;11.77;;;21.90;99.90;;;;;;5095100;28;20065;-71
2022/05/07 09:18:27;;;;;;;14.10;10.88;;;22.20;99.90;;;;;;5113157;28;20081;-68
2022/05/07 09:21:16;;;;;;;11.23;10.13;;;22.40;99.90;;;;;;5113250;28;20034;-67
2022/05/07 09:24:01;;;;;;;12.45;11.15;;;22.50;99.90;;;;;;5113140;28;20463;-67
2022/05/07 09:26:39;;;;;;;12.55;9.90;;;22.60;99.90;;;;;;5112990;28;20085;-68
2022/05/07 09:29:13;;;;;;;13.15;8.48;;;22.80;99.90;;;;;;5112819;28;20473;-69
2022/05/07 09:31:44;;;;;;;10.38;8.00;;;22.80;99.90;;;;;;5113090;28;20055;-69
2022/05/07 09:37:14;;;;;;;9.77;8.77;;;22.90;99.90;;;;;;5112744;28;20392;-68
2022/05/07 09:39:46;;;;;;;13.07;9.10;;;22.90;99.90;;;;;;5112955;28;20156;-69
2022/05/07 09:42:13;;;;;;;9.70;7.93;;;23.00;99.90;;;;;;5112615;28;20433;-68
2022/05/07 09:44:40;;;;;;;14.57;10.55;;;23.40;99.90;;;;;;5112679;28;20038;-69
2022/05/07 09:47:09;;;;;;;14.90;9.60;;;23.50;99.90;;;;;;5094597;28;20391;-72
2022/05/07 09:49:35;;;;;;;9.88;7.95;;;23.80;99.90;;;;;;5112880;28;20115;-72
2022/05/07 09:52:03;;;;;;;11.40;9.75;;;23.80;99.90;;;;;;5111881;28;20042;-72
2022/05/07 09:57:33;;;;;;;10.55;7.90;;;23.50;99.90;;;;;;5112527;28;20030;-72
2022/05/07 10:00:13;;;;;;;10.80;7.03;;;23.40;99.90;;;;;;5112782;28;20026;-72
2022/05/07 10:03:14;;;;;;;14.90;11.35;;;23.50;99.90;;;;;;5116181;28;20066;-71
2022/05/07 10:05:54;;;;;;;12.27;7.93;;;23.30;99.90;;;;;;5116058;28;20452;-72
2022/05/07 10:08:44;;;;;;;10.32;8.10;;;23.40;99.20;;;;;;5097650;28;20034;-70
2022/05/07 10:11:13;;;;;;;16.33;8.02;;;23.40;99.90;;;;;;5116598;28;20053;-67
2022/05/07 10:13:39;;;;;;;9.20;6.55;;;23.10;99.40;;;;;;5116258;28;20049;-69
2022/05/07 10:16:05;;;;;;;11.88;8.25;;;23.20;99.90;;;;;;5115957;28;20031;-69
2022/05/07 10:18:41;;;;;;;11.57;8.38;;;23.20;99.50;;;;;;5097628;28;20114;-70
2022/05/07 10:21:17;;;;;;;11.68;8.60;;;23.30;99.90;;;;;;5097884;28;20114;-69
2022/05/07 10:23:55;;;;;;;11.20;8.10;;;23.30;99.30;;;;;;5115985;28;20058;-70
2022/05/07 10:26:41;;;;;;;13.00;8.00;;;23.30;99.90;;;;;;5115503;28;20504;-68
2022/05/07 10:29:19;;;;;;;8.35;6.65;;;23.20;98.00;;;;;;5115911;28;20024;-68
2022/05/07 10:31:45;;;;;;;11.05;6.43;;;23.30;97.60;;;;;;5115910;28;20073;-68
2022/05/07 10:34:27;;;;;;;13.18;6.93;;;23.30;96.90;;;;;;5097534;28;20054;-70
2022/05/07 10:36:59;;;;;;;;;;;23.10;97.20;;;;;;5097983;28;20063;-69
2022/05/07 10:39:25;;;;;;;7.25;6.47;;;22.80;97.70;;;;;;5097546;28;20007;-69
2022/05/07 10:41:51;;;;;;;12.13;6.60;;;22.50;95.70;;;;;;5115910;28;20535;-68
2022/05/07 10:44:34;;;;;;;12.75;7.38;;;22.60;97.00;;;;;;5115514;28;20422;-70
2022/05/07 10:47:20;;;;;;;11.77;6.70;;;22.60;97.70;;;;;;5097255;28;20019;-69
2022/05/07 10:50:16;;;;;;;11.93;7.40;;;22.50;96.90;;;;;;5115533;28;20031;-70
2022/05/07 10:52:42;;;;;;;15.48;6.85;;;22.50;98.10;;;;;;5110377;28;20392;-70
2022/05/07 10:55:13;;;;;;;11.80;7.18;;;22.40;97.50;;;;;;5115682;28;20032;-70
2022/05/07 10:57:46;;;;;;;14.40;6.65;;;22.30;97.70;;;;;;5115506;28;20019;-74
2022/05/07 11:00:17;;;;;;;12.13;7.18;;;22.10;97.10;;;;;;5115284;28;20028;-69
2022/05/07 11:02:45;;;;;;;14.00;7.00;;;22.00;97.40;;;;;;5115419;28;20126;-70
2022/05/07 11:05:11;;;;;;;10.20;7.07;;;22.10;97.00;;;;;;5096848;28;20032;-69
2022/05/07 11:07:41;;;;;;;14.60;7.43;;;21.90;98.00;;;;;;5115119;28;20037;-70
2022/05/07 11:10:08;;;;;;;13.38;7.85;;;21.90;97.00;;;;;;5115189;28;20149;-70
2022/05/07 11:12:39;;;;;;;10.95;7.57;;;21.80;97.80;;;;;;5114562;28;20020;-70
2022/05/07 11:15:06;;;;;;;10.25;7.15;;;21.90;97.80;;;;;;5115137;28;20035;-70
2022/05/07 11:17:35;;;;;;;12.82;6.90;;;21.90;97.00;;;;;;5115385;28;20024;-70
2022/05/07 11:20:02;;;;;;;12.88;7.50;;;22.20;97.00;;;;;;5114911;28;20479;-70
2022/05/07 11:22:31;;;;;;;10.27;8.13;;;22.20;98.50;;;;;;5115007;28;20030;-70
2022/05/07 11:25:02;;;;;;;16.63;8.07;;;22.00;96.80;;;;;;5096353;28;20036;-68
2022/05/07 11:27:34;;;;;;;12.30;8.07;;;22.10;96.60;;;;;;5115020;28;20146;-69
2022/05/07 11:30:03;;;;;;;10.60;6.55;;;22.20;96.70;;;;;;5096528;28;20020;-69
2022/05/07 11:32:37;;;;;;;14.77;7.63;;;22.30;97.30;;;;;;5096426;28;20031;-68
2022/05/07 11:35:05;;;;;;;15.02;8.68;;;22.40;96.60;;;;;;5113801;28;20052;-69
2022/05/07 11:37:41;;;;;;;11.60;7.30;;;22.50;97.30;;;;;;5112352;28;20024;-70
2022/05/07 11:40:09;;;;;;;12.70;6.85;;;22.50;97.00;;;;;;5090399;28;20457;-69
2022/05/07 11:42:36;;;;;;;8.48;7.15;;;22.50;96.40;;;;;;5075511;28;20024;-69
2022/05/07 11:48:04;;;;;;;10.00;6.35;;;22.70;96.20;;;;;;5091221;28;20074;-69
2022/05/07 11:50:41;;;;;;;10.65;6.55;;;22.80;95.90;;;;;;5093342;28;20107;-68
2022/05/07 11:53:18;;;;;;;12.20;6.22;;;22.80;95.00;;;;;;5093955;28;20025;-70
2022/05/07 11:55:45;;;;;;;21.25;6.40;;;22.90;95.90;;;;;;5095517;28;20038;-71
2022/05/07 11:58:13;;;;;;;13.95;6.65;;;23.00;92.90;;;;;;5114251;28;20221;-70
2022/05/07 12:00:46;;;;;;;7.22;4.70;;;23.10;94.10;;;;;;5095762;28;20051;-71
2022/05/07 12:03:15;;;;;;;13.75;5.03;;;23.20;91.30;;;;;;5113680;28;20038;-69
2022/05/07 12:05:51;;;;;;;12.50;5.45;;;23.30;92.80;;;;;;5113662;28;20118;-69
2022/05/07 12:08:29;;;;;;;6.75;4.82;;;23.40;91.60;;;;;;5113919;28;20102;-70
2022/05/07 12:10:55;;;;;;;8.65;4.47;;;23.60;83.40;;;;;;5113831;28;20046;-69
2022/05/07 12:13:26;;;;;;;5.35;3.78;;;23.80;88.40;;;;;;5113945;28;20034;-69
2022/05/07 12:18:41;;;;;;;6.15;3.28;;;24.60;82.90;;;;;;5113583;28;20173;-69
2022/05/07 12:21:08;;;;;;;6.60;3.67;;;25.00;79.00;;;;;;5095317;28;20028;-69
2022/05/07 12:31:53;;;;;;;9.75;3.53;;;26.90;72.80;;;;;;5113848;28;20080;-70
2022/05/07 12:34:19;;;;;;;7.47;2.75;;;27.00;71.90;;;;;;5113727;28;20110;-68
2022/05/07 12:36:45;;;;;;;5.97;2.58;;;27.30;70.80;;;;;;5095532;28;20448;-67
2022/05/07 12:39:11;;;;;;;4.88;2.65;;;27.00;69.20;;;;;;5079273;28;20535;-67
2022/05/07 12:41:41;;;;;;;8.63;2.50;;;26.80;70.50;;;;;;5074913;28;20177;-68
2022/05/07 12:44:07;;;;;;;5.25;3.00;;;26.40;69.30;;;;;;5092972;28;20059;-68
2022/05/07 12:46:33;;;;;;;10.23;2.83;;;26.00;70.40;;;;;;5092858;28;20067;-68
2022/05/07 12:48:58;;;;;;;4.22;2.38;;;25.70;69.20;;;;;;5093106;28;20165;-67
2022/05/07 12:51:26;;;;;;;4.75;2.60;;;25.50;73.10;;;;;;5092845;28;20102;-69
2022/05/07 12:53:54;;;;;;;5.00;2.70;;;25.50;69.80;;;;;;5092887;28;20396;-68
2022/05/07 12:56:22;;;;;;;6.07;2.50;;;25.70;89.30;;;;;;5092443;28;20043;-67
2022/05/07 12:58:49;;;;;;;8.07;2.55;;;25.60;69.80;;;;;;5093038;28;20024;-68
2022/05/07 13:01:15;;;;;;;6.68;2.80;;;25.80;71.40;;;;;;5092778;28;20024;-67
2022/05/07 13:03:41;;;;;;;6.75;2.60;;;26.00;70.10;;;;;;5092854;28;20119;-67
2022/05/07 13:06:09;;;;;;;7.90;2.78;;;26.40;69.00;;;;;;5092787;28;20031;-67
2022/05/07 13:08:35;;;;;;;10.85;3.00;;;26.80;68.00;;;;;;5092395;28;20514;-65
2022/05/07 13:11:01;;;;;;;10.18;2.90;;;27.30;68.00;;;;;;5097978;28;20032;-66
2022/05/07 13:13:27;;;;;;;6.50;3.10;;;27.50;65.40;;;;;;5091260;28;20350;-67
2022/05/07 13:15:53;;;;;;;3.95;2.65;;;27.50;66.20;;;;;;5092657;28;20085;-67
2022/05/07 13:18:20;;;;;;;9.93;2.70;;;27.20;66.80;;;;;;5092493;28;20020;-66